Time;durP1;ratioP1;P1;durP2;ratioP2;P2;SDS_P1;SDS_P2;PMS_P1;PMS_P2;Temp;Humidity;BMP_temperature;BMP_pressure;BME280_temperature;BME280_humidity;BME280_pressure;Samples;Min_cycle;Max_cycle;Signal;HPM_P1;HPM_P2
2023/05/26 00:01:03;;;;;;;3.72;2.55;;;;;;;18.19;100.00;100516.00;5068587;28;20028;-67
2023/05/26 00:03:29;;;;;;;2.97;2.03;;;;;;;18.17;100.00;100509.84;5046632;28;20477;-66
2023/05/26 00:05:55;;;;;;;3.40;2.20;;;;;;;18.01;100.00;100497.94;5072507;28;20032;-66
2023/05/26 00:08:24;;;;;;;3.05;2.05;;;;;;;17.78;100.00;100493.25;5085003;28;20797;-68
2023/05/26 00:10:49;;;;;;;3.53;2.22;;;;;;;17.73;100.00;100530.56;5075993;28;20028;-67
2023/05/26 00:13:15;;;;;;;3.92;2.80;;;;;;;17.89;100.00;100523.06;5066447;28;20040;-67
2023/05/26 00:15:41;;;;;;;4.38;2.05;;;;;;;18.00;100.00;100522.75;5082160;28;20193;-67
2023/05/26 00:18:07;;;;;;;6.07;2.13;;;;;;;18.08;100.00;100528.72;5080808;28;20063;-67
2023/05/26 00:20:33;;;;;;;2.67;1.80;;;;;;;18.01;100.00;100527.16;5069726;28;20056;-68
2023/05/26 00:22:59;;;;;;;3.15;2.25;;;;;;;17.00;100.00;100408.75;5084764;28;20036;-67
2023/05/26 00:25:25;;;;;;;6.05;2.53;;;;;;;17.57;100.00;100529.22;5088791;28;20444;-67
2023/05/26 00:27:50;;;;;;;6.45;2.63;;;;;;;17.25;100.00;100496.47;5068430;28;20060;-67
2023/05/26 00:30:16;;;;;;;3.72;2.05;;;;;;;17.59;100.00;100532.72;5081690;28;20020;-67
2023/05/26 00:32:42;;;;;;;3.03;2.00;;;;;;;17.66;100.00;100531.63;5075748;28;20123;-67
2023/05/26 00:35:07;;;;;;;2.78;1.90;;;;;;;17.43;100.00;100490.66;5076316;28;20634;-66
2023/05/26 00:37:33;;;;;;;4.10;2.08;;;;;;;17.61;100.00;100526.44;5040085;28;20462;-67
2023/05/26 00:39:59;;;;;;;2.85;2.05;;;;;;;17.48;100.00;100536.50;5077320;28;20036;-67
2023/05/26 00:42:24;;;;;;;4.88;2.55;;;;;;;17.34;100.00;100509.47;5084423;28;20028;-67
2023/05/26 00:44:51;;;;;;;4.93;2.35;;;;;;;17.32;100.00;100510.44;5084087;28;20378;-67
2023/05/26 00:47:16;;;;;;;3.38;2.33;;;;;;;17.45;100.00;100519.81;5088214;28;20016;-67
2023/05/26 00:49:43;;;;;;;2.95;2.45;;;;;;;17.30;100.00;100500.75;5079770;28;20458;-67
2023/05/26 00:52:08;;;;;;;3.00;1.83;;;;;;;17.55;100.00;100517.78;5084583;28;20083;-66
2023/05/26 00:54:35;;;;;;;5.25;2.88;;;;;;;17.68;100.00;100514.75;5088292;28;20471;-66
2023/05/26 00:57:02;;;;;;;4.90;2.90;;;;;;;17.61;100.00;100481.34;5076080;28;20110;-67
2023/05/26 00:59:27;;;;;;;6.63;2.88;;;;;;;17.53;100.00;100491.28;5088606;28;20036;-67
2023/05/26 01:01:54;;;;;;;5.03;3.00;;;;;;;17.41;100.00;100510.19;5084844;28;20443;-67
2023/05/26 01:04:21;;;;;;;3.35;2.20;;;;;;;17.57;100.00;100513.31;5086725;28;20059;-67
2023/05/26 01:06:49;;;;;;;4.15;2.42;;;;;;;17.51;100.00;100499.31;5088567;28;20111;-67
2023/05/26 01:09:15;;;;;;;3.85;2.45;;;;;;;17.61;100.00;100517.63;5088971;28;20028;-66
2023/05/26 01:12:05;;;;;;;6.28;2.47;;;;;;;17.41;100.00;100515.50;5087830;28;20111;-65
2023/05/26 01:14:56;;;;;;;3.40;2.03;;;;;;;17.56;100.00;100500.94;5086363;28;20983;-67
2023/05/26 01:17:45;;;;;;;4.90;2.40;;;;;;;17.71;100.00;100516.44;5088005;28;20031;-65
2023/05/26 01:20:18;;;;;;;2.95;1.70;;;;;;;17.69;100.00;100515.63;5088217;28;20036;-66
2023/05/26 01:22:59;;;;;;;3.47;1.90;;;;;;;17.69;100.00;100513.81;5088518;28;20040;-66
2023/05/26 01:25:39;;;;;;;3.90;2.35;;;;;;;17.71;100.00;100525.28;5088474;28;20113;-67
2023/05/26 01:28:21;;;;;;;1.75;1.38;;;;;;;17.73;100.00;100525.25;5088096;28;20393;-66
2023/05/26 01:30:49;;;;;;;2.60;1.52;;;;;;;17.64;100.00;100515.75;5088419;28;20094;-67
2023/05/26 01:33:14;;;;;;;3.58;2.38;;;;;;;17.47;100.00;100470.25;5088933;28;20055;-67
2023/05/26 01:35:40;;;;;;;3.45;2.28;;;;;;;16.99;100.00;100388.44;5087289;28;20071;-67
2023/05/26 01:38:07;;;;;;;4.60;2.47;;;;;;;17.68;100.00;100506.78;5069503;28;20039;-67
2023/05/26 01:40:33;;;;;;;4.82;1.80;;;;;;;17.69;100.00;100511.19;5073369;28;20419;-66
2023/05/26 01:43:03;;;;;;;2.63;1.67;;;;;;;17.63;100.00;100510.47;5084839;28;20042;-65
2023/05/26 01:45:38;;;;;;;6.15;2.03;;;;;;;17.58;100.00;100502.63;5083194;28;20071;-67
2023/05/26 01:48:06;;;;;;;3.42;2.22;;;;;;;17.05;100.00;100418.31;5087253;28;20062;-66
2023/05/26 01:50:37;;;;;;;3.45;2.53;;;;;;;17.47;100.00;100483.50;5088510;28;20370;-67
2023/05/26 01:53:07;;;;;;;3.90;2.28;;;;;;;17.51;100.00;100490.44;5088617;28;20424;-67
2023/05/26 01:55:36;;;;;;;4.15;2.22;;;;;;;17.34;100.00;100479.44;5077977;28;20681;-66
2023/05/26 01:58:02;;;;;;;3.10;1.90;;;;;;;17.29;100.00;100453.03;5080104;28;20040;-66
2023/05/26 02:00:27;;;;;;;4.50;2.13;;;;;;;17.27;100.00;100465.47;5081716;28;20056;-66
2023/05/26 02:02:53;;;;;;;3.42;2.75;;;;;;;17.24;100.00;100453.16;5082991;28;20403;-67
2023/05/26 02:05:18;;;;;;;5.10;2.28;;;;;;;17.29;100.00;100459.22;5088842;28;20713;-68
2023/05/26 02:07:45;;;;;;;5.00;2.63;;;;;;;17.36;100.00;100475.84;5058517;28;20128;-67
2023/05/26 02:10:11;;;;;;;3.30;2.03;;;;;;;17.42;100.00;100485.41;5080286;28;20035;-67
2023/05/26 02:12:36;;;;;;;4.10;2.40;;;;;;;17.36;100.00;100472.31;5086628;28;20397;-67
2023/05/26 02:15:02;;;;;;;2.95;1.63;;;;;;;17.17;100.00;100434.81;5088244;28;20036;-67
2023/05/26 02:17:28;;;;;;;3.72;2.40;;;;;;;17.28;100.00;100480.50;5087882;28;20036;-66
2023/05/26 02:19:54;;;;;;;3.72;2.00;;;;;;;17.29;100.00;100485.72;5087982;28;20105;-66
2023/05/26 02:22:19;;;;;;;5.20;2.63;;;;;;;17.23;100.00;100475.31;5086247;28;20116;-67
2023/05/26 02:24:45;;;;;;;3.72;1.88;;;;;;;16.76;100.00;100379.28;5087762;28;20089;-67
2023/05/26 02:27:10;;;;;;;3.55;2.22;;;;;;;17.21;100.00;100489.53;5088199;28;20031;-66
2023/05/26 02:29:35;;;;;;;4.68;2.72;;;;;;;17.28;100.00;100488.44;5082142;28;20055;-66
2023/05/26 02:32:01;;;;;;;3.30;2.15;;;;;;;17.24;100.00;100481.47;5085722;28;20032;-66
2023/05/26 02:34:26;;;;;;;5.32;2.00;;;;;;;17.26;100.00;100499.09;5069731;28;20089;-66
2023/05/26 02:36:55;;;;;;;4.40;2.40;;;;;;;17.24;100.00;100489.44;5088365;28;20058;-67
2023/05/26 02:39:21;;;;;;;6.45;2.38;;;;;;;17.29;100.00;100492.81;5039334;28;20036;-66
2023/05/26 02:41:47;;;;;;;4.28;2.08;;;;;;;17.24;100.00;100489.44;5080461;28;20036;-66
2023/05/26 02:44:13;;;;;;;4.60;2.60;;;;;;;17.16;100.00;100499.34;5074414;28;20035;-66
2023/05/26 02:46:39;;;;;;;4.15;2.13;;;;;;;17.05;100.00;100463.38;5076894;28;20039;-67
2023/05/26 02:49:05;;;;;;;4.63;2.40;;;;;;;17.25;100.00;100494.66;5087562;28;20509;-67
2023/05/26 02:51:31;;;;;;;3.70;2.03;;;;;;;16.97;100.00;100452.09;5077663;28;20063;-67
2023/05/26 02:53:56;;;;;;;3.60;2.22;;;;;;;16.98;100.00;100460.94;5068156;28;20036;-67
2023/05/26 02:56:22;;;;;;;4.13;2.28;;;;;;;16.59;100.00;100408.00;5074662;28;20059;-67
2023/05/26 02:58:47;;;;;;;4.03;2.40;;;;;;;17.07;100.00;100488.09;5087714;28;20749;-67
2023/05/26 03:01:13;;;;;;;4.05;2.28;;;;;;;17.10;100.00;100484.47;5087347;28;20024;-67
2023/05/26 03:03:38;;;;;;;3.88;2.45;;;;;;;17.04;100.00;100474.91;5080755;28;20545;-67
2023/05/26 03:06:04;;;;;;;5.10;2.67;;;;;;;17.12;100.00;100480.00;5087315;28;20071;-67
2023/05/26 03:08:30;;;;;;;7.25;3.33;;;;;;;16.97;100.00;100454.75;5086662;28;20040;-66
2023/05/26 03:10:56;;;;;;;2.70;2.03;;;;;;;16.99;100.00;100463.53;5087653;28;20028;-66
2023/05/26 03:13:21;;;;;;;4.85;3.70;;;;;;;17.24;100.00;100495.59;5050966;28;20048;-66
2023/05/26 03:15:48;;;;;;;4.30;2.85;;;;;;;17.15;100.00;100482.56;5087565;28;20861;-68
2023/05/26 03:18:13;;;;;;;4.63;2.97;;;;;;;17.27;100.00;100505.25;5076471;28;20195;-66
2023/05/26 03:20:39;;;;;;;4.20;2.40;;;;;;;17.30;100.00;100507.81;5076720;28;20025;-66
2023/05/26 03:23:05;;;;;;;14.90;2.40;;;;;;;17.32;100.00;100498.03;5081518;28;20028;-66
2023/05/26 03:25:31;;;;;;;5.70;2.30;;;;;;;17.20;100.00;100482.44;5079706;28;20388;-66
2023/05/26 03:27:56;;;;;;;3.67;2.58;;;;;;;17.42;100.00;100506.63;5079297;28;20112;-65
2023/05/26 03:30:22;;;;;;;5.78;2.75;;;;;;;17.42;100.00;100490.69;5086816;28;20032;-66
2023/05/26 03:32:47;;;;;;;9.75;2.85;;;;;;;17.41;100.00;100491.63;5075708;28;20036;-66
2023/05/26 03:35:13;;;;;;;4.00;2.88;;;;;;;17.49;100.00;100508.22;5082131;28;20028;-66
2023/05/26 03:37:38;;;;;;;4.18;2.42;;;;;;;17.38;100.00;100492.59;5086894;28;20446;-66
2023/05/26 03:40:05;;;;;;;5.28;3.17;;;;;;;17.54;100.00;100508.97;5086605;28;20032;-65
2023/05/26 03:42:31;;;;;;;4.93;2.58;;;;;;;17.58;100.00;100515.91;5078584;28;20040;-65
2023/05/26 03:44:56;;;;;;;4.13;3.15;;;;;;;17.57;100.00;100526.56;5080516;28;20032;-67
2023/05/26 03:47:22;;;;;;;4.50;2.65;;;;;;;17.48;100.00;100499.38;5085548;28;20107;-67
2023/05/26 03:49:47;;;;;;;4.55;2.30;;;;;;;17.45;100.00;100514.50;5086846;28;20562;-67
2023/05/26 03:52:13;;;;;;;4.53;2.97;;;;;;;17.48;100.00;100517.94;5078518;28;20082;-67
2023/05/26 03:54:39;;;;;;;5.03;3.42;;;;;;;17.60;100.00;100535.31;5087037;28;20036;-67
2023/05/26 03:57:05;;;;;;;3.88;2.70;;;;;;;17.55;100.00;100525.75;5073244;28;20052;-67
2023/05/26 03:59:31;;;;;;;4.43;2.55;;;;;;;17.62;100.00;100537.94;5079356;28;20032;-67
2023/05/26 04:01:57;;;;;;;5.72;2.83;;;;;;;17.47;100.00;100516.22;5077409;28;20031;-67
2023/05/26 04:04:23;;;;;;;4.40;2.15;;;;;;;17.65;100.00;100543.16;5068936;28;20484;-67
2023/05/26 04:06:49;;;;;;;5.30;2.90;;;;;;;17.59;100.00;100544.19;5074329;28;20094;-67
2023/05/26 04:09:14;;;;;;;6.00;3.45;;;;;;;17.57;100.00;100548.66;5076770;28;20073;-65
2023/05/26 04:11:40;;;;;;;3.05;2.03;;;;;;;17.63;100.00;100550.28;5086027;28;20108;-65
2023/05/26 04:14:06;;;;;;;6.55;3.78;;;;;;;17.62;100.00;100552.06;5074886;28;20029;-66
2023/05/26 04:16:32;;;;;;;6.18;2.95;;;;;;;17.27;100.00;100540.59;5085073;28;20034;-65
2023/05/26 04:18:58;;;;;;;3.80;2.58;;;;;;;17.46;100.00;100543.63;5085205;28;20059;-66
2023/05/26 04:21:24;;;;;;;4.85;2.92;;;;;;;17.59;100.00;100546.84;5092017;28;20035;-68
2023/05/26 04:23:51;;;;;;;5.07;3.22;;;;;;;17.61;100.00;100539.72;5092904;28;20031;-66
2023/05/26 04:26:17;;;;;;;3.63;2.30;;;;;;;17.36;100.00;100505.00;5086721;28;20028;-67
2023/05/26 04:28:44;;;;;;;3.55;2.60;;;;;;;17.65;100.00;100535.19;5088939;28;20053;-66
2023/05/26 04:31:10;;;;;;;4.28;2.80;;;;;;;17.67;100.00;100539.53;5092545;28;20028;-67
2023/05/26 04:33:39;;;;;;;3.90;2.60;;;;;;;17.72;100.00;100535.00;5090032;28;20054;-67
2023/05/26 04:36:08;;;;;;;4.47;2.47;;;;;;;17.66;100.00;100511.28;5089918;28;20627;-66
2023/05/26 04:38:41;;;;;;;4.85;2.97;;;;;;;17.84;100.00;100541.78;5053413;28;20101;-67
2023/05/26 04:41:07;;;;;;;4.72;2.60;;;;;;;17.43;100.00;100508.38;5089094;28;20024;-67
2023/05/26 04:43:35;;;;;;;2.67;1.65;;;;;;;17.85;100.00;100540.84;5083990;28;20093;-67
2023/05/26 04:46:02;;;;;;;3.42;2.42;;;;;;;17.72;100.00;100491.63;5068692;28;20401;-66
2023/05/26 04:48:28;;;;;;;10.55;2.80;;;;;;;17.67;100.00;100488.25;5072277;28;20035;-66
2023/05/26 04:50:53;;;;;;;5.57;2.67;;;;;;;17.93;100.00;100514.09;5086532;28;20047;-66
2023/05/26 04:53:20;;;;;;;5.13;3.25;;;;;;;18.18;100.00;100545.25;5084369;28;20048;-67
2023/05/26 04:55:45;;;;;;;4.78;2.83;;;;;;;18.17;100.00;100549.69;5079942;28;20091;-66
2023/05/26 04:58:11;;;;;;;3.58;2.15;;;;;;;18.03;100.00;100520.88;5084983;28;20421;-67
2023/05/26 05:00:37;;;;;;;3.88;2.42;;;;;;;18.05;100.00;100508.44;5084185;28;20027;-67
2023/05/26 05:03:03;;;;;;;3.03;1.70;;;;;;;17.63;100.00;100430.84;5069603;28;20731;-67
2023/05/26 05:05:29;;;;;;;3.03;2.33;;;;;;;18.36;100.00;100550.03;5074077;28;20032;-68
2023/05/26 05:07:55;;;;;;;4.05;2.92;;;;;;;18.18;100.00;100527.53;5086107;28;20128;-66
2023/05/26 05:10:21;;;;;;;3.85;2.80;;;;;;;18.35;100.00;100549.16;5087679;28;20119;-66
2023/05/26 05:12:47;;;;;;;3.47;2.10;;;;;;;18.43;100.00;100571.97;5085433;28;20493;-67
2023/05/26 05:15:12;;;;;;;5.03;2.65;;;;;;;18.52;100.00;100567.25;5034998;28;20047;-67
2023/05/26 05:17:38;;;;;;;8.00;3.70;;;;;;;18.33;100.00;100523.53;5053844;28;20041;-67
2023/05/26 05:20:04;;;;;;;7.47;2.92;;;;;;;18.63;100.00;100550.94;5086522;28;20092;-67
2023/05/26 05:22:30;;;;;;;4.40;2.50;;;;;;;18.47;100.00;100520.44;5089532;28;20070;-66
2023/05/26 05:24:56;;;;;;;3.47;1.50;;;;;;;18.54;100.00;100522.00;5088827;28;20032;-68
2023/05/26 05:27:22;;;;;;;6.43;2.55;;;;;;;18.72;100.00;100566.63;5088650;28;20078;-67
2023/05/26 05:29:47;;;;;;;4.32;2.80;;;;;;;18.95;100.00;100567.72;5070407;28;20105;-67
2023/05/26 05:32:13;;;;;;;3.78;2.20;;;;;;;19.57;100.00;100598.47;5088053;28;20789;-65
2023/05/26 05:34:38;;;;;;;4.47;2.10;;;;;;;19.26;100.00;100545.44;5088761;28;20064;-67
2023/05/26 05:37:04;;;;;;;2.33;1.70;;;;;;;19.86;100.00;100608.16;5086714;28;20063;-66
2023/05/26 05:39:29;;;;;;;2.28;1.35;;;;;;;19.78;100.00;100613.75;5088507;28;20465;-66
2023/05/26 05:41:55;;;;;;;2.58;1.33;;;;;;;19.74;100.00;100611.25;5081669;28;20048;-66
2023/05/26 05:44:20;;;;;;;2.97;1.45;;;;;;;19.62;100.00;100615.19;5060837;28;20089;-66
2023/05/26 05:46:46;;;;;;;5.78;2.00;;;;;;;19.61;100.00;100614.28;5085011;28;20044;-67
2023/05/26 05:49:11;;;;;;;5.88;2.72;;;;;;;19.16;100.00;100544.88;5086939;28;20036;-66
2023/05/26 05:51:37;;;;;;;4.43;1.75;;;;;;;19.44;100.00;100629.97;5062456;28;20059;-67
2023/05/26 05:54:02;;;;;;;2.70;1.70;;;;;;;19.86;100.00;100626.81;5082588;28;20745;-67
2023/05/26 05:56:28;;;;;;;3.60;1.55;;;;;;;19.95;100.00;100621.16;5088227;28;20448;-67
2023/05/26 05:58:53;;;;;;;2.58;1.55;;;;;;;19.85;100.00;100626.84;5088673;28;20036;-67
2023/05/26 06:01:19;;;;;;;2.95;1.58;;;;;;;19.79;100.00;100623.47;5086446;28;20035;-68
2023/05/26 06:03:45;;;;;;;4.65;1.98;;;;;;;19.90;100.00;100603.56;5050262;28;20813;-67
2023/05/26 06:06:11;;;;;;;3.10;1.98;;;;;;;20.15;100.00;100595.56;5088133;28;20453;-67
2023/05/26 06:08:36;;;;;;;2.67;1.65;;;;;;;20.23;100.00;100599.69;5088060;28;20028;-67
2023/05/26 06:11:02;;;;;;;6.22;2.10;;;;;;;20.46;100.00;100629.94;5088249;28;20077;-67
2023/05/26 06:13:28;;;;;;;1.95;1.33;;;;;;;20.53;100.00;100620.78;5067457;28;20056;-67
2023/05/26 06:15:53;;;;;;;2.63;1.55;;;;;;;20.59;100.00;100607.25;5084110;28;20039;-66
2023/05/26 06:18:19;;;;;;;2.78;1.63;;;;;;;20.89;100.00;100595.47;5087985;28;20032;-67
2023/05/26 06:20:44;;;;;;;2.63;1.52;;;;;;;21.38;100.00;100593.47;5088301;28;20028;-66
2023/05/26 06:23:10;;;;;;;4.80;2.22;;;;;;;22.24;100.00;100630.75;5087662;28;20028;-67
2023/05/26 06:25:35;;;;;;;2.33;1.58;;;;;;;22.83;100.00;100650.31;5045257;28;20059;-67
2023/05/26 06:28:01;;;;;;;4.28;2.28;;;;;;;23.10;100.00;100652.63;5088464;28;20039;-65
2023/05/26 06:30:26;;;;;;;3.53;1.67;;;;;;;23.23;100.00;100610.09;5087385;28;20078;-66
2023/05/26 06:32:51;;;;;;;4.45;2.42;;;;;;;23.67;100.00;100661.44;5088073;28;20044;-67
2023/05/26 06:35:17;;;;;;;3.22;1.85;;;;;;;23.04;93.19;100634.19;5035156;28;20048;-66
2023/05/26 06:37:43;;;;;;;4.97;2.13;;;;;;;23.64;99.72;100634.78;5087520;28;20035;-66
2023/05/26 06:40:09;;;;;;;3.22;1.80;;;;;;;24.11;97.47;100654.75;5044709;28;20044;-67
2023/05/26 06:42:34;;;;;;;3.80;2.28;;;;;;;23.56;100.00;100648.56;5087790;28;20055;-67
2023/05/26 06:44:59;;;;;;;6.50;1.67;;;;;;;23.71;99.89;100654.94;5072798;28;20461;-66
2023/05/26 06:47:25;;;;;;;3.53;1.77;;;;;;;22.91;100.00;100599.09;5081123;28;20038;-66
2023/05/26 06:49:50;;;;;;;5.32;1.55;;;;;;;23.04;98.59;100664.53;5087586;28;20028;-66
2023/05/26 06:52:17;;;;;;;4.88;1.58;;;;;;;23.01;100.00;100655.75;5085422;28;20055;-66
2023/05/26 06:54:43;;;;;;;3.40;1.73;;;;;;;22.88;100.00;100658.13;5087081;28;20038;-66
2023/05/26 06:57:08;;;;;;;2.60;1.33;;;;;;;22.72;100.00;100656.16;5073761;28;20044;-66
2023/05/26 06:59:34;;;;;;;2.25;1.60;;;;;;;22.70;100.00;100662.53;5086870;28;20039;-67
2023/05/26 07:01:59;;;;;;;5.85;2.15;;;;;;;23.28;100.00;100643.72;5049628;28;20032;-67
2023/05/26 07:04:25;;;;;;;5.68;1.58;;;;;;;23.93;97.64;100654.75;5087076;28;20028;-66
2023/05/26 07:06:50;;;;;;;4.03;1.73;;;;;;;24.27;100.00;100652.13;5086672;28;20040;-66
2023/05/26 07:09:15;;;;;;;6.22;1.73;;;;;;;23.96;86.25;100659.97;5086224;28;20036;-66
2023/05/26 07:11:41;;;;;;;10.23;1.92;;;;;;;23.51;86.74;100597.03;5086597;28;20101;-66
2023/05/26 07:14:06;;;;;;;2.15;1.10;;;;;;;23.18;92.94;100658.50;5085880;28;20105;-65
2023/05/26 07:16:32;;;;;;;3.88;2.25;;;;;;;23.33;94.59;100654.19;5081905;28;20056;-67
2023/05/26 07:18:57;;;;;;;4.00;2.25;;;;;;;23.93;87.03;100664.63;5040417;28;20036;-66
2023/05/26 07:21:25;;;;;;;3.33;1.67;;;;;;;23.97;78.99;100668.84;5072329;28;20039;-67
2023/05/26 07:23:51;;;;;;;6.13;1.63;;;;;;;22.88;79.40;100664.34;5040042;28;20126;-68
2023/05/26 07:26:16;;;;;;;3.28;1.95;;;;;;;23.74;88.49;100660.22;5078213;28;20068;-66
2023/05/26 07:28:42;;;;;;;5.20;1.70;;;;;;;23.75;75.56;100667.28;5077718;28;20043;-66
2023/05/26 07:31:08;;;;;;;3.95;2.33;;;;;;;24.52;75.13;100660.63;5085968;28;20043;-66
2023/05/26 07:33:34;;;;;;;1.10;0.95;;;;;;;23.93;75.17;100605.66;5086789;28;20031;-66
2023/05/26 07:35:59;;;;;;;2.90;2.05;;;;;;;24.16;72.79;100650.00;5081219;28;20032;-67
2023/05/26 07:38:24;;;;;;;2.60;1.48;;;;;;;24.14;71.88;100663.50;5071924;28;20066;-65
2023/05/26 07:40:51;;;;;;;3.28;1.83;;;;;;;23.57;70.62;100660.13;5085415;28;20078;-67
2023/05/26 07:43:16;;;;;;;3.95;1.83;;;;;;;23.56;73.11;100661.97;5068147;28;20851;-67
2023/05/26 07:45:42;;;;;;;3.58;1.98;;;;;;;24.54;73.49;100658.72;5084233;28;20127;-67
2023/05/26 07:48:07;;;;;;;2.78;1.73;;;;;;;24.20;71.40;100659.63;5085304;28;20563;-66
2023/05/26 07:50:33;;;;;;;2.47;1.63;;;;;;;24.41;66.73;100669.19;5083868;28;20039;-66
2023/05/26 07:52:58;;;;;;;2.97;1.75;;;;;;;23.58;67.11;100619.88;5080452;28;20043;-66
2023/05/26 07:55:24;;;;;;;2.72;1.35;;;;;;;23.25;71.01;100646.56;5084920;28;20052;-66
2023/05/26 07:57:49;;;;;;;3.25;1.90;;;;;;;23.56;71.25;100661.97;5038158;28;20174;-66
2023/05/26 08:00:15;;;;;;;3.45;1.10;;;;;;;23.77;78.21;100665.41;5085332;28;20036;-65
2023/05/26 08:02:42;;;;;;;2.97;1.50;;;;;;;22.99;80.74;100657.63;5045162;28;20151;-67
2023/05/26 08:05:07;;;;;;;2.75;1.20;;;;;;;23.01;84.50;100664.66;5065220;28;20468;-67
2023/05/26 08:07:33;;;;;;;2.78;1.73;;;;;;;23.26;81.56;100661.66;5085834;28;20039;-67
2023/05/26 08:09:58;;;;;;;4.28;2.97;;;;;;;22.97;79.40;100666.59;5084452;28;20036;-66
2023/05/26 08:12:24;;;;;;;2.35;1.15;;;;;;;22.66;74.93;100658.25;5071717;28;20399;-67
2023/05/26 08:14:49;;;;;;;2.58;1.40;;;;;;;23.34;73.57;100663.94;5088836;28;20123;-68
2023/05/26 08:17:15;;;;;;;3.53;1.63;;;;;;;22.80;72.44;100655.78;5089702;28;20082;-66
2023/05/26 08:19:41;;;;;;;2.38;1.40;;;;;;;22.57;76.92;100664.91;5088890;28;20559;-67
2023/05/26 08:22:06;;;;;;;2.67;1.38;;;;;;;22.13;77.81;100619.63;5075608;28;20451;-67
2023/05/26 08:24:32;;;;;;;1.30;0.85;;;;;;;22.57;79.61;100667.59;5085750;28;20117;-67
2023/05/26 08:26:57;;;;;;;4.18;1.80;;;;;;;22.05;85.26;100673.41;5077822;28;20706;-67
2023/05/26 08:29:22;;;;;;;2.80;1.27;;;;;;;22.29;93.84;100652.78;5075937;28;20032;-67
2023/05/26 08:31:49;;;;;;;4.93;2.00;;;;;;;22.30;100.00;100650.97;5078358;28;20035;-68
2023/05/26 08:34:15;;;;;;;2.65;1.40;;;;;;;22.03;100.00;100661.94;5072557;28;20098;-67
2023/05/26 08:36:41;;;;;;;4.25;2.60;;;;;;;22.28;100.00;100655.50;5078527;28;20059;-67
2023/05/26 08:39:06;;;;;;;3.67;2.63;;;;;;;22.47;100.00;100660.91;5068789;28;20359;-67
2023/05/26 08:41:48;;;;;;;4.50;2.05;;;;;;;22.41;100.00;100663.88;5083198;28;20741;-67
2023/05/26 08:44:16;;;;;;;5.10;1.85;;;;;;;22.08;100.00;100622.50;5085758;28;20028;-68
2023/05/26 08:46:44;;;;;;;3.00;1.30;;;;;;;22.13;100.00;100679.28;5078944;28;20028;-67
2023/05/26 08:49:14;;;;;;;5.50;1.92;;;;;;;21.86;100.00;100667.13;5076309;28;20477;-67
2023/05/26 08:51:44;;;;;;;2.85;1.45;;;;;;;21.85;100.00;100671.59;5085466;28;20028;-68
2023/05/26 08:54:10;;;;;;;2.45;1.48;;;;;;;21.73;100.00;100674.81;5080972;28;20472;-67
2023/05/26 08:56:36;;;;;;;4.05;1.90;;;;;;;21.55;97.33;100623.00;5057197;28;20043;-68
2023/05/26 08:59:08;;;;;;;2.58;1.38;;;;;;;21.93;95.00;100668.59;5085581;28;20020;-68
2023/05/26 09:01:34;;;;;;;4.97;1.70;;;;;;;21.90;98.44;100660.72;5085579;28;20038;-68
2023/05/26 09:04:00;;;;;;;4.43;1.48;;;;;;;21.55;96.64;100657.72;5078687;28;20089;-67
2023/05/26 09:06:25;;;;;;;1.85;0.88;;;;;;;21.94;98.78;100662.31;5085835;28;20024;-67
2023/05/26 09:08:52;;;;;;;3.47;1.88;;;;;;;22.01;100.00;100665.56;5081971;28;20029;-67
2023/05/26 09:11:22;;;;;;;3.25;2.03;;;;;;;22.17;99.65;100657.75;5082388;28;20024;-67
2023/05/26 09:14:06;;;;;;;4.53;2.53;;;;;;;22.32;99.43;100660.66;5082421;28;20043;-67
2023/05/26 09:16:31;;;;;;;;;;;;;;;22.63;95.57;100661.06;5086668;28;20024;-67
2023/05/26 09:19:01;;;;;;;3.28;2.03;;;;;;;22.47;87.20;100663.56;5080980;28;20281;-67
2023/05/26 09:21:28;;;;;;;1.95;1.20;;;;;;;22.32;89.97;100662.47;5086136;28;20119;-67
2023/05/26 09:23:55;;;;;;;3.15;1.60;;;;;;;21.94;92.47;100606.22;5088788;28;20568;-67
2023/05/26 09:26:31;;;;;;;3.03;1.80;;;;;;;22.76;87.64;100663.13;5087906;28;20032;-66
2023/05/26 09:28:58;;;;;;;2.60;1.50;;;;;;;23.51;83.65;100655.97;5088859;28;20050;-66
2023/05/26 09:31:24;;;;;;;4.00;1.75;;;;;;;23.81;81.40;100647.34;5089005;28;20103;-66
2023/05/26 09:33:50;;;;;;;2.97;1.60;;;;;;;22.41;83.80;100557.78;5070387;28;20139;-66
2023/05/26 09:36:16;;;;;;;4.32;1.90;;;;;;;23.13;82.51;100640.00;5086082;28;20135;-67
2023/05/26 09:38:42;;;;;;;3.83;2.28;;;;;;;23.40;79.86;100644.91;5084817;28;20047;-66
2023/05/26 09:41:08;;;;;;;3.45;1.50;;;;;;;22.71;78.26;100656.22;5089002;28;20028;-66
2023/05/26 09:43:34;;;;;;;3.70;2.15;;;;;;;22.78;79.80;100636.28;5088420;28;20032;-67
2023/05/26 09:46:00;;;;;;;4.22;2.00;;;;;;;22.34;82.20;100650.75;5078943;28;20571;-67
2023/05/26 09:48:25;;;;;;;5.88;1.73;;;;;;;21.99;79.99;100624.72;5087471;28;20054;-67
2023/05/26 09:50:52;;;;;;;2.88;1.88;;;;;;;21.91;81.68;100635.72;5080293;28;20045;-66
2023/05/26 09:53:17;;;;;;;2.55;1.48;;;;;;;22.04;87.29;100649.44;5082562;28;20047;-67
2023/05/26 09:55:44;;;;;;;3.58;1.80;;;;;;;21.37;100.00;100627.28;5079826;28;20086;-66
2023/05/26 09:58:12;;;;;;;4.13;2.35;;;;;;;21.07;100.00;100621.38;5080882;28;20033;-66
2023/05/26 10:00:43;;;;;;;4.03;1.58;;;;;;;20.55;100.00;100616.25;5087985;28;20044;-66
2023/05/26 10:03:09;;;;;;;3.38;2.17;;;;;;;20.79;100.00;100643.84;5086524;28;20047;-67
2023/05/26 10:05:40;;;;;;;3.28;1.40;;;;;;;20.92;100.00;100640.69;5070392;28;20744;-68
2023/05/26 10:08:06;;;;;;;2.65;1.60;;;;;;;20.96;100.00;100644.97;5082742;28;20074;-67
2023/05/26 10:10:33;;;;;;;2.90;1.60;;;;;;;21.38;100.00;100609.47;5087521;28;20118;-66
2023/05/26 10:13:01;;;;;;;2.95;1.73;;;;;;;21.61;100.00;100629.88;5082183;28;20055;-67
2023/05/26 10:15:27;;;;;;;3.15;1.75;;;;;;;;;;5073720;28;20035;-67
2023/05/26 10:17:53;;;;;;;3.28;1.95;;;;;;;22.06;100.00;100570.06;5085490;28;20042;-67
2023/05/26 10:20:18;;;;;;;2.42;1.73;;;;;;;23.65;95.55;100622.22;5086197;28;20036;-66
2023/05/26 10:23:14;;;;;;;4.38;2.38;;;;;;;23.80;80.82;100619.69;5086707;28;20035;-67
2023/05/26 10:26:10;;;;;;;3.88;2.58;;;;;;;24.43;73.30;100599.38;5085974;28;20028;-66
2023/05/26 10:29:00;;;;;;;4.28;2.90;;;;;;;24.56;75.35;100565.59;5086018;28;20032;-67
2023/05/26 10:31:30;;;;;;;3.67;2.05;;;;;;;24.43;72.04;100592.19;5087642;28;20129;-66
2023/05/26 10:33:56;;;;;;;2.58;1.38;;;;;;;24.33;81.43;100612.44;5073749;28;20816;-67
2023/05/26 10:36:22;;;;;;;3.42;2.03;;;;;;;24.97;70.47;100601.78;5078444;28;20035;-66
2023/05/26 10:38:52;;;;;;;3.42;2.00;;;;;;;24.85;72.68;100565.75;5087189;28;20028;-67
2023/05/26 10:41:49;;;;;;;6.07;2.78;;;;;;;24.99;67.05;100590.00;5051184;28;20044;-67
2023/05/26 10:45:00;;;;;;;3.33;2.13;;;;;;;25.01;63.30;100577.34;5086539;28;20485;-66
2023/05/26 10:47:30;;;;;;;3.95;2.33;;;;;;;24.95;66.92;100577.69;5022199;28;20025;-66
2023/05/26 10:49:58;;;;;;;2.40;1.65;;;;;;;25.52;63.76;100560.09;5024849;28;20630;-68
2023/05/26 10:52:44;;;;;;;3.47;1.95;;;;;;;25.64;63.10;100576.38;5025258;28;20084;-67
2023/05/26 10:55:28;;;;;;;2.88;1.92;;;;;;;25.42;59.95;100546.34;5023532;28;20064;-67
2023/05/26 10:57:53;;;;;;;;;;;;;;;24.85;62.21;100563.94;5021745;28;20037;-66
2023/05/26 11:00:18;;;;;;;4.30;2.33;;;;;;;25.56;65.00;100561.66;5031099;28;20397;-67
2023/05/26 11:02:44;;;;;;;3.20;1.88;;;;;;;25.43;61.44;100561.53;5029122;28;20036;-67
2023/05/26 11:05:32;;;;;;;3.00;1.63;;;;;;;25.41;60.64;100548.19;5029755;28;20085;-68
2023/05/26 11:07:57;;;;;;;4.47;2.53;;;;;;;25.79;59.05;100555.75;5032100;28;20770;-66
2023/05/26 11:10:23;;;;;;;2.85;1.55;;;;;;;25.60;56.59;100542.56;5029926;28;20045;-67
2023/05/26 11:12:57;;;;;;;2.22;1.33;;;;;;;26.00;57.09;100507.88;5024534;28;20042;-67
2023/05/26 11:15:28;;;;;;;2.65;1.83;;;;;;;25.89;58.30;100538.13;5029756;28;20040;-67
2023/05/26 11:17:59;;;;;;;3.13;1.98;;;;;;;25.43;56.48;100515.88;5019200;28;20052;-66
2023/05/26 11:20:25;;;;;;;4.95;2.22;;;;;;;25.30;58.89;100536.34;5036857;28;20170;-68
2023/05/26 11:22:52;;;;;;;3.47;1.95;;;;;;;24.97;60.59;100534.66;5033669;28;20727;-67